createdAt,value
2023-04-18T00:00:26.875Z,840.00
2023-04-18T00:01:26.901Z,836.00
2023-04-18T00:02:27.008Z,833.00
2023-04-18T00:03:27.181Z,832.00
2023-04-18T00:04:27.221Z,834.00
2023-04-18T00:05:27.084Z,835.00
2023-04-18T00:06:27.029Z,834.00
2023-04-18T00:07:27.094Z,835.00
2023-04-18T00:08:27.090Z,836.00
2023-04-18T00:09:27.148Z,836.00
2023-04-18T00:10:27.163Z,834.00
2023-04-18T00:11:27.165Z,833.00
2023-04-18T00:12:27.214Z,833.00
2023-04-18T00:13:27.212Z,834.00
2023-04-18T00:14:27.263Z,837.00
2023-04-18T00:15:27.286Z,838.00
2023-04-18T00:16:27.424Z,838.00
2023-04-18T00:17:27.379Z,837.00
2023-04-18T00:18:27.365Z,838.00
2023-04-18T00:19:27.358Z,839.00
2023-04-18T00:20:27.395Z,838.00
2023-04-18T00:21:27.417Z,835.00
2023-04-18T00:22:27.422Z,832.00
2023-04-18T00:23:27.453Z,832.00
2023-04-18T00:24:27.513Z,831.00
2023-04-18T00:25:27.525Z,830.00
2023-04-18T00:26:27.551Z,828.00
2023-04-18T00:27:27.537Z,830.00
2023-04-18T00:28:27.621Z,830.00
2023-04-18T00:29:27.631Z,824.00
2023-04-18T00:30:27.633Z,827.00
2023-04-18T00:31:27.789Z,823.00
2023-04-18T00:32:27.714Z,824.00
2023-04-18T00:33:27.787Z,825.00
2023-04-18T00:34:27.732Z,828.00
2023-04-18T00:35:27.779Z,829.00
2023-04-18T00:36:27.803Z,827.00
2023-04-18T00:37:27.828Z,827.00
2023-04-18T00:38:27.856Z,823.00
2023-04-18T00:39:27.864Z,822.00
2023-04-18T00:40:27.904Z,823.00
2023-04-18T00:41:27.925Z,825.00
2023-04-18T00:42:27.954Z,822.00
2023-04-18T00:43:27.981Z,822.00
2023-04-18T00:44:27.989Z,825.00
2023-04-18T00:45:27.992Z,827.00
2023-04-18T00:46:28.060Z,824.00
2023-04-18T00:47:28.170Z,823.00
2023-04-18T00:48:28.085Z,823.00
2023-04-18T00:49:28.108Z,825.00
2023-04-18T00:50:28.126Z,827.00
2023-04-18T00:51:28.159Z,822.00
2023-04-18T00:52:28.175Z,820.00
2023-04-18T00:53:28.235Z,822.00
2023-04-18T00:54:28.257Z,827.00
2023-04-18T00:55:28.264Z,830.00
2023-04-18T00:56:28.294Z,828.00
2023-04-18T00:57:28.298Z,827.00
2023-04-18T00:58:28.300Z,824.00
2023-04-18T00:59:28.362Z,824.00
2023-04-18T01:00:28.382Z,826.00
2023-04-18T01:01:28.466Z,827.00
2023-04-18T01:02:28.495Z,825.00
2023-04-18T01:03:28.560Z,822.00
2023-04-18T01:04:28.550Z,820.00
2023-04-18T01:05:28.524Z,818.00
2023-04-18T01:06:28.540Z,816.00
2023-04-18T01:07:28.529Z,819.00
2023-04-18T01:08:28.580Z,820.00
2023-04-18T01:09:28.619Z,817.00
2023-04-18T01:10:28.652Z,812.00
2023-04-18T01:11:28.677Z,809.00
2023-04-18T01:12:28.720Z,809.00
2023-04-18T01:13:28.725Z,811.00
2023-04-18T01:14:28.771Z,811.00
2023-04-18T01:15:28.781Z,807.00
2023-04-18T01:16:28.881Z,805.00
2023-04-18T01:17:28.873Z,801.00
2023-04-18T01:18:28.842Z,801.00
2023-04-18T01:19:28.889Z,800.00
2023-04-18T01:20:28.896Z,798.00
2023-04-18T01:21:28.919Z,799.00
2023-04-18T01:22:28.982Z,798.00
2023-04-18T01:23:28.994Z,798.00
2023-04-18T01:24:29.026Z,803.00
2023-04-18T01:25:29.054Z,806.00
2023-04-18T01:26:29.082Z,809.00
2023-04-18T01:27:29.119Z,808.00
2023-04-18T01:28:29.116Z,807.00
2023-04-18T01:29:29.150Z,808.00
2023-04-18T01:30:29.164Z,806.00
2023-04-18T01:31:29.266Z,804.00
2023-04-18T01:32:29.265Z,804.00
2023-04-18T01:33:29.250Z,803.00
2023-04-18T01:34:29.302Z,802.00
2023-04-18T01:35:29.345Z,797.00
2023-04-18T01:36:29.363Z,793.00
2023-04-18T01:37:29.348Z,794.00
2023-04-18T01:38:29.437Z,796.00
2023-04-18T01:39:29.462Z,797.00
2023-04-18T01:40:29.462Z,796.00
2023-04-18T01:41:29.491Z,796.00
2023-04-18T01:42:29.512Z,796.00
2023-04-18T01:43:29.576Z,792.00
2023-04-18T01:44:29.555Z,794.00
2023-04-18T01:45:29.603Z,792.00
2023-04-18T01:46:29.661Z,792.00
2023-04-18T01:47:29.693Z,788.00
2023-04-18T01:48:29.707Z,788.00
2023-04-18T01:49:29.712Z,788.00
2023-04-18T01:50:29.742Z,786.00
2023-04-18T01:51:29.802Z,782.00
2023-04-18T01:52:29.836Z,782.00
2023-04-18T01:53:29.889Z,782.00
2023-04-18T01:54:29.915Z,781.00
2023-04-18T01:55:29.900Z,777.00
2023-04-18T01:56:29.936Z,779.00
2023-04-18T01:57:29.963Z,779.00
2023-04-18T01:58:30.010Z,778.00
2023-04-18T01:59:30.058Z,779.00
2023-04-18T02:00:30.140Z,780.00
2023-04-18T02:01:30.170Z,782.00
2023-04-18T02:02:30.388Z,785.00
2023-04-18T02:03:30.318Z,784.00
2023-04-18T02:04:30.187Z,781.00
2023-04-18T02:05:30.240Z,777.00
2023-04-18T02:06:30.228Z,775.00
2023-04-18T02:07:30.267Z,776.00
2023-04-18T02:08:30.299Z,776.00
2023-04-18T02:09:30.361Z,775.00
2023-04-18T02:10:30.365Z,776.00
2023-04-18T02:11:30.410Z,776.00
2023-04-18T02:12:30.436Z,777.00
2023-04-18T02:13:30.486Z,776.00
2023-04-18T02:14:30.515Z,776.00
2023-04-18T02:15:30.517Z,774.00
2023-04-18T02:16:30.615Z,776.00
2023-04-18T02:17:30.605Z,777.00
2023-04-18T02:18:30.594Z,776.00
2023-04-18T02:19:30.648Z,777.00
2023-04-18T02:20:30.642Z,776.00
2023-04-18T02:21:30.700Z,774.00
2023-04-18T02:22:30.710Z,777.00
2023-04-18T02:23:30.791Z,776.00
2023-04-18T02:24:30.787Z,775.00
2023-04-18T02:25:30.791Z,775.00
2023-04-18T02:26:30.858Z,774.00
2023-04-18T02:27:30.845Z,776.00
2023-04-18T02:28:30.885Z,773.00
2023-04-18T02:29:30.932Z,774.00
2023-04-18T02:30:30.960Z,775.00
2023-04-18T02:31:31.015Z,771.00
2023-04-18T02:32:31.063Z,771.00
2023-04-18T02:33:31.049Z,771.00
2023-04-18T02:34:31.062Z,771.00
2023-04-18T02:35:31.104Z,772.00
2023-04-18T02:36:31.145Z,772.00
2023-04-18T02:37:31.185Z,773.00
2023-04-18T02:38:31.184Z,772.00
2023-04-18T02:39:31.224Z,771.00
2023-04-18T02:40:31.277Z,769.00
2023-04-18T02:41:31.355Z,768.00
2023-04-18T02:42:31.318Z,767.00
2023-04-18T02:43:31.350Z,766.00
2023-04-18T02:44:31.411Z,767.00
2023-04-18T02:45:31.406Z,766.00
2023-04-18T02:46:31.487Z,762.00
2023-04-18T02:47:37.532Z,760.00
2023-04-18T02:48:32.483Z,760.00
2023-04-18T02:49:31.441Z,759.00
2023-04-18T02:50:31.446Z,760.00
2023-04-18T02:51:31.420Z,760.00
2023-04-18T02:52:31.432Z,760.00
2023-04-18T02:53:31.443Z,762.00
2023-04-18T02:54:31.415Z,760.00
2023-04-18T02:55:31.412Z,759.00
2023-04-18T02:56:31.402Z,759.00
2023-04-18T02:57:31.395Z,759.00
2023-04-18T02:58:31.430Z,759.00
2023-04-18T02:59:31.376Z,759.00
2023-04-18T03:00:31.346Z,758.00
2023-04-18T03:01:31.394Z,760.00
2023-04-18T03:02:32.155Z,762.00
2023-04-18T03:03:31.399Z,762.00
2023-04-18T03:04:31.476Z,764.00
2023-04-18T03:05:31.440Z,764.00
2023-04-18T03:06:31.484Z,765.00
2023-04-18T03:07:31.543Z,763.00
2023-04-18T03:08:31.583Z,763.00
2023-04-18T03:09:31.596Z,763.00
2023-04-18T03:10:31.633Z,764.00
2023-04-18T03:11:31.685Z,760.00
2023-04-18T03:12:31.721Z,757.00
2023-04-18T03:13:31.766Z,759.00
2023-04-18T03:14:31.806Z,761.00
2023-04-18T03:15:31.889Z,762.00
2023-04-18T03:16:31.854Z,761.00
2023-04-18T03:17:31.911Z,764.00
2023-04-18T03:18:31.952Z,765.00
2023-04-18T03:19:31.983Z,766.00
2023-04-18T03:20:31.995Z,763.00
2023-04-18T03:21:32.015Z,762.00
2023-04-18T03:22:32.060Z,760.00
2023-04-18T03:23:32.098Z,757.00
2023-04-18T03:24:32.163Z,756.00
2023-04-18T03:25:32.199Z,753.00
2023-04-18T03:26:32.186Z,751.00
2023-04-18T03:27:32.216Z,748.00
2023-04-18T03:28:32.276Z,745.00
2023-04-18T03:29:32.329Z,748.00
2023-04-18T03:30:32.342Z,748.00
2023-04-18T03:31:32.405Z,747.00
2023-04-18T03:32:32.412Z,748.00
2023-04-18T03:33:32.452Z,747.00
2023-04-18T03:34:32.485Z,747.00
2023-04-18T03:35:32.498Z,749.00
2023-04-18T03:36:32.567Z,751.00
2023-04-18T03:37:32.607Z,751.00
2023-04-18T03:38:32.616Z,749.00
2023-04-18T03:39:32.696Z,747.00
2023-04-18T03:40:32.688Z,746.00
2023-04-18T03:41:32.719Z,745.00
2023-04-18T03:42:32.778Z,745.00
2023-04-18T03:43:32.790Z,742.00
2023-04-18T03:44:32.802Z,741.00
2023-04-18T03:45:32.836Z,743.00
2023-04-18T03:46:33.005Z,743.00
2023-04-18T03:47:32.947Z,742.00
2023-04-18T03:48:32.945Z,740.00
2023-04-18T03:49:32.993Z,740.00
2023-04-18T03:50:33.044Z,741.00
2023-04-18T03:51:33.053Z,742.00
2023-04-18T03:52:33.081Z,744.00
2023-04-18T03:53:33.092Z,744.00
2023-04-18T03:54:33.115Z,746.00
2023-04-18T03:55:33.161Z,745.00
2023-04-18T03:56:33.247Z,745.00
2023-04-18T03:57:33.239Z,743.00
2023-04-18T03:58:33.252Z,739.00
2023-04-18T03:59:33.301Z,739.00
2023-04-18T04:00:33.349Z,738.00
2023-04-18T04:01:33.504Z,736.00
2023-04-18T04:02:33.520Z,735.00
2023-04-18T04:03:33.484Z,735.00
2023-04-18T04:04:33.510Z,737.00
2023-04-18T04:05:33.462Z,736.00
2023-04-18T04:06:33.513Z,737.00
2023-04-18T04:07:33.560Z,736.00
2023-04-18T04:08:33.569Z,735.00
2023-04-18T04:09:33.623Z,736.00
2023-04-18T04:10:33.658Z,734.00
2023-04-18T04:11:33.688Z,737.00
2023-04-18T04:12:33.747Z,737.00
2023-04-18T04:13:33.753Z,737.00
2023-04-18T04:14:33.793Z,735.00
2023-04-18T04:15:33.792Z,734.00
2023-04-18T04:16:33.885Z,735.00
2023-04-18T04:17:33.904Z,736.00
2023-04-18T04:18:33.906Z,733.00
2023-04-18T04:19:33.959Z,731.00
2023-04-18T04:20:33.952Z,730.00
2023-04-18T04:21:33.973Z,733.00
2023-04-18T04:22:34.045Z,732.00
2023-04-18T04:23:34.033Z,735.00
2023-04-18T04:24:34.123Z,739.00
2023-04-18T04:25:34.142Z,740.00
2023-04-18T04:26:34.164Z,740.00
2023-04-18T04:27:34.186Z,740.00
2023-04-18T04:28:34.227Z,738.00
2023-04-18T04:29:34.317Z,737.00
2023-04-18T04:30:34.350Z,734.00
2023-04-18T04:31:34.385Z,734.00
2023-04-18T04:32:34.410Z,733.00
2023-04-18T04:33:34.560Z,732.00
2023-04-18T04:34:34.502Z,729.00
2023-04-18T04:35:34.514Z,727.00
2023-04-18T04:36:34.566Z,728.00
2023-04-18T04:37:34.566Z,728.00
2023-04-18T04:38:34.613Z,729.00
2023-04-18T04:39:34.707Z,729.00
2023-04-18T04:40:34.703Z,728.00
2023-04-18T04:41:34.741Z,728.00
2023-04-18T04:42:34.772Z,727.00
2023-04-18T04:43:34.820Z,730.00
2023-04-18T04:44:34.898Z,728.00
2023-04-18T04:45:34.897Z,726.00
2023-04-18T04:46:34.896Z,726.00
2023-04-18T04:47:34.990Z,728.00
2023-04-18T04:48:34.987Z,729.00
2023-04-18T04:49:35.042Z,728.00
2023-04-18T04:50:35.044Z,727.00
2023-04-18T04:51:35.122Z,729.00
2023-04-18T04:52:35.106Z,729.00
2023-04-18T04:53:35.155Z,730.00
2023-04-18T04:54:35.243Z,727.00
2023-04-18T04:55:35.221Z,725.00
2023-04-18T04:56:35.254Z,722.00
2023-04-18T04:57:35.326Z,721.00
2023-04-18T04:58:35.326Z,720.00
2023-04-18T04:59:35.378Z,719.00
2023-04-18T05:00:35.370Z,720.00
2023-04-18T05:01:35.443Z,718.00
2023-04-18T05:02:35.559Z,717.00
2023-04-18T05:03:35.626Z,716.00
2023-04-18T05:04:35.594Z,717.00
2023-04-18T05:05:35.555Z,716.00
2023-04-18T05:06:35.586Z,717.00
2023-04-18T05:07:35.586Z,718.00
2023-04-18T05:08:35.659Z,719.00
2023-04-18T05:09:35.709Z,717.00
2023-04-18T05:10:35.681Z,716.00
2023-04-18T05:11:35.759Z,716.00
2023-04-18T05:12:35.774Z,717.00
2023-04-18T05:13:35.793Z,721.00
2023-04-18T05:14:35.863Z,722.00
2023-04-18T05:15:35.841Z,722.00
2023-04-18T05:16:35.962Z,724.00
2023-04-18T05:17:35.934Z,725.00
2023-04-18T05:18:35.944Z,722.00
2023-04-18T05:19:36.012Z,724.00
2023-04-18T05:20:36.031Z,726.00
2023-04-18T05:21:36.094Z,726.00
2023-04-18T05:22:36.094Z,723.00
2023-04-18T05:23:36.134Z,720.00
2023-04-18T05:24:36.226Z,719.00
2023-04-18T05:25:36.188Z,718.00
2023-04-18T05:26:36.267Z,721.00
2023-04-18T05:27:36.288Z,721.00
2023-04-18T05:28:36.302Z,719.00
2023-04-18T05:29:36.860Z,721.00
2023-04-18T05:30:36.420Z,721.00
2023-04-18T05:31:36.581Z,721.00
2023-04-18T05:32:36.481Z,721.00
2023-04-18T05:33:36.474Z,720.00
2023-04-18T05:34:38.589Z,719.00
2023-04-18T05:35:36.566Z,721.00
2023-04-18T05:36:36.598Z,724.00
2023-04-18T05:37:36.644Z,734.00
2023-04-18T05:38:36.687Z,735.00
2023-04-18T05:39:36.699Z,745.00
2023-04-18T05:40:36.878Z,783.00
2023-04-18T05:41:36.746Z,789.00
2023-04-18T05:42:36.802Z,797.00
2023-04-18T05:43:36.791Z,804.00
2023-04-18T05:44:36.811Z,818.00
2023-04-18T05:45:36.867Z,841.00
2023-04-18T05:46:36.941Z,873.00
2023-04-18T05:47:37.067Z,892.00
2023-04-18T05:48:36.917Z,925.00
2023-04-18T05:49:36.945Z,982.00
2023-04-18T05:50:36.975Z,993.00
2023-04-18T05:51:37.019Z,1009.00
2023-04-18T05:52:37.025Z,970.00
2023-04-18T05:53:37.049Z,914.00
2023-04-18T05:54:37.113Z,839.00
2023-04-18T05:55:37.154Z,849.00
2023-04-18T05:56:37.214Z,880.00
2023-04-18T05:57:37.223Z,887.00
2023-04-18T05:58:37.199Z,866.00
2023-04-18T05:59:37.212Z,855.00
2023-04-18T06:00:37.215Z,804.00
2023-04-18T06:01:37.236Z,795.00
2023-04-18T06:02:37.332Z,809.00
2023-04-18T06:03:37.422Z,877.00
2023-04-18T06:04:37.325Z,947.00
2023-04-18T06:05:37.379Z,956.00
2023-04-18T06:06:37.236Z,961.00
2023-04-18T06:07:37.333Z,977.00
2023-04-18T06:08:37.351Z,993.00
2023-04-18T06:09:37.478Z,1060.00
2023-04-18T06:10:39.208Z,1086.00
2023-04-18T06:11:37.507Z,1099.00
2023-04-18T06:12:37.568Z,1128.00
2023-04-18T06:13:37.631Z,1145.00
2023-04-18T06:14:37.607Z,1166.00
2023-04-18T06:15:37.641Z,1179.00
2023-04-18T06:16:37.963Z,1195.00
2023-04-18T06:17:37.733Z,1225.00
2023-04-18T06:18:37.678Z,1246.00
2023-04-18T06:19:37.681Z,1267.00
2023-04-18T06:20:37.721Z,1286.00
2023-04-18T06:21:37.698Z,1305.00
2023-04-18T06:22:37.709Z,1321.00
2023-04-18T06:23:37.705Z,1336.00
2023-04-18T06:24:37.751Z,1347.00
2023-04-18T06:25:37.759Z,1359.00
2023-04-18T06:26:37.718Z,1375.00
2023-04-18T06:27:37.760Z,1406.00
2023-04-18T06:28:37.815Z,1425.00
2023-04-18T06:29:38.064Z,1437.00
2023-04-18T06:30:37.967Z,1468.00
2023-04-18T06:31:38.065Z,1488.00
2023-04-18T06:32:38.135Z,1506.00
2023-04-18T06:33:38.148Z,1528.00
2023-04-18T06:34:38.230Z,1568.00
2023-04-18T06:35:38.294Z,1587.00
2023-04-18T06:36:38.307Z,1600.00
2023-04-18T06:37:38.380Z,1623.00
2023-04-18T06:38:38.414Z,1657.00
2023-04-18T06:39:38.462Z,1679.00
2023-04-18T06:40:38.503Z,1688.00
2023-04-18T06:41:38.759Z,1702.00
2023-04-18T06:42:38.601Z,1718.00
2023-04-18T06:43:38.636Z,1747.00
2023-04-18T06:44:38.693Z,1759.00
2023-04-18T06:45:39.004Z,1771.00
2023-04-18T06:46:38.749Z,1786.00
2023-04-18T06:47:38.797Z,1797.00
2023-04-18T06:48:38.831Z,1807.00
2023-04-18T06:49:38.880Z,1413.00
2023-04-18T06:50:38.956Z,1210.00
2023-04-18T06:51:38.946Z,937.00
2023-04-18T06:52:38.948Z,841.00
2023-04-18T06:53:39.039Z,792.00
2023-04-18T06:54:39.028Z,769.00
2023-04-18T06:55:39.075Z,910.00
2023-04-18T06:56:39.101Z,928.00
2023-04-18T06:57:39.366Z,866.00
2023-04-18T06:58:39.207Z,859.00
2023-04-18T06:59:39.243Z,848.00
2023-04-18T07:00:39.330Z,845.00
2023-04-18T07:01:39.564Z,965.00
2023-04-18T07:02:39.533Z,952.00
2023-04-18T07:03:39.552Z,972.00
2023-04-18T07:04:39.601Z,1090.00
2023-04-18T07:05:39.879Z,1039.00
2023-04-18T07:06:39.601Z,1080.00
2023-04-18T07:07:39.618Z,1073.00
2023-04-18T07:08:39.613Z,1073.00
2023-04-18T07:09:39.608Z,1128.00
2023-04-18T07:10:39.640Z,1092.00
2023-04-18T07:11:39.600Z,1139.00
2023-04-18T07:12:39.595Z,1048.00
2023-04-18T07:13:39.585Z,966.00
2023-04-18T07:14:39.622Z,1047.00
2023-04-18T07:15:39.617Z,1176.00
2023-04-18T07:16:39.651Z,1135.00
2023-04-18T07:17:39.654Z,1169.00
2023-04-18T07:18:39.640Z,1055.00
2023-04-18T07:19:39.636Z,1208.00
2023-04-18T07:20:39.624Z,1118.00
2023-04-18T07:21:39.688Z,1225.00
2023-04-18T07:22:39.757Z,1232.00
2023-04-18T07:23:39.813Z,1178.00
2023-04-18T07:24:39.851Z,1211.00
2023-04-18T07:25:39.939Z,1208.00
2023-04-18T07:26:39.992Z,1203.00
2023-04-18T07:27:40.014Z,1218.00
2023-04-18T07:28:40.065Z,1140.00
2023-04-18T07:29:40.326Z,1126.00
2023-04-18T07:30:40.196Z,1211.00
2023-04-18T07:31:40.236Z,1182.00
2023-04-18T07:32:40.344Z,1261.00
2023-04-18T07:33:40.329Z,1274.00
2023-04-18T07:34:40.422Z,1275.00
2023-04-18T07:35:40.376Z,1285.00
2023-04-18T07:36:40.416Z,1294.00
2023-04-18T07:37:40.442Z,1302.00
2023-04-18T07:38:40.494Z,1306.00
2023-04-18T07:39:40.484Z,1114.00
2023-04-18T07:40:40.919Z,1121.00
2023-04-18T07:41:40.615Z,1234.00
2023-04-18T07:42:40.752Z,1250.00
2023-04-18T07:43:40.700Z,1252.00
2023-04-18T07:44:40.688Z,1258.00
2023-04-18T07:45:40.956Z,1263.00
2023-04-18T07:46:40.821Z,1275.00
2023-04-18T07:47:40.751Z,1373.00
2023-04-18T07:48:40.900Z,1558.00
2023-04-18T07:49:40.727Z,1532.00
2023-04-18T07:50:40.922Z,1539.00
2023-04-18T07:51:40.721Z,1554.00
2023-04-18T07:52:40.797Z,1579.00
2023-04-18T07:53:41.053Z,1606.00
2023-04-18T07:54:40.809Z,1668.00
2023-04-18T07:55:41.056Z,1678.00
2023-04-18T07:56:40.890Z,1680.00
2023-04-18T07:57:40.916Z,1738.00
2023-04-18T07:58:40.965Z,1737.00
2023-04-18T07:59:41.030Z,1739.00
2023-04-18T08:00:41.090Z,1742.00
2023-04-18T08:01:41.182Z,1757.00
2023-04-18T08:02:41.459Z,1763.00
2023-04-18T08:03:41.380Z,1767.00
2023-04-18T08:04:41.498Z,1778.00
2023-04-18T08:05:41.427Z,1784.00
2023-04-18T08:06:41.443Z,1791.00
2023-04-18T08:07:41.456Z,1798.00
2023-04-18T08:08:41.566Z,1816.00
2023-04-18T08:09:41.573Z,1834.00
2023-04-18T08:10:41.625Z,1842.00
2023-04-18T08:11:41.651Z,1877.00
2023-04-18T08:12:41.693Z,1900.00
2023-04-18T08:13:41.740Z,1920.00
2023-04-18T08:14:41.868Z,1921.00
2023-04-18T08:15:41.898Z,1929.00
2023-04-18T08:16:42.018Z,1936.00
2023-04-18T08:17:42.217Z,1936.00
2023-04-18T08:18:42.012Z,1945.00
2023-04-18T08:19:42.034Z,1959.00
2023-04-18T08:20:42.092Z,1968.00
2023-04-18T08:21:42.118Z,1983.00
2023-04-18T08:22:57.756Z,2004.00
2023-04-18T08:23:43.165Z,2015.00
2023-04-18T08:24:57.246Z,2025.00
2023-04-18T08:25:43.147Z,2034.00
2023-04-18T08:26:42.132Z,2042.00
2023-04-18T08:27:42.137Z,2061.00
2023-04-18T08:28:43.745Z,2077.00
2023-04-18T08:29:42.103Z,2103.00
2023-04-18T08:30:42.096Z,2117.00
2023-04-18T08:31:42.147Z,2132.00
2023-04-18T08:32:42.144Z,2143.00
2023-04-18T08:33:42.147Z,2167.00
2023-04-18T08:34:42.063Z,2189.00
2023-04-18T08:35:42.085Z,2217.00
2023-04-18T08:36:42.449Z,2225.00
2023-04-18T08:37:42.053Z,2223.00
2023-04-18T08:38:42.025Z,2239.00
2023-04-18T08:39:42.044Z,2399.00
2023-04-18T08:40:42.030Z,2371.00
2023-04-18T08:41:42.423Z,2372.00
2023-04-18T08:42:42.003Z,2475.00
2023-04-18T08:43:42.044Z,2500.00
2023-04-18T08:44:42.027Z,2495.00
2023-04-18T08:45:42.026Z,1618.00
2023-04-18T08:46:42.426Z,1257.00
2023-04-18T08:47:42.159Z,1309.00
2023-04-18T08:48:41.964Z,1317.00
2023-04-18T08:49:41.975Z,1336.00
2023-04-18T08:50:41.970Z,1158.00
2023-04-18T08:51:42.436Z,1279.00
2023-04-18T08:52:41.918Z,1465.00
2023-04-18T08:53:41.920Z,1468.00
2023-04-18T08:54:41.933Z,1316.00
2023-04-18T08:55:41.902Z,1054.00
2023-04-18T08:56:41.938Z,1048.00
2023-04-18T08:57:41.900Z,981.00
2023-04-18T08:58:41.899Z,966.00
2023-04-18T08:59:43.213Z,905.00
2023-04-18T09:00:41.876Z,830.00
2023-04-18T09:01:41.881Z,837.00
2023-04-18T09:02:42.001Z,809.00
2023-04-18T09:03:41.941Z,901.00
2023-04-18T09:04:41.834Z,887.00
2023-04-18T09:05:42.004Z,861.00
2023-04-18T09:06:41.843Z,886.00
2023-04-18T09:07:41.829Z,971.00
2023-04-18T09:08:41.845Z,952.00
2023-04-18T09:09:41.811Z,969.00
2023-04-18T09:10:41.787Z,1169.00
2023-04-18T09:11:41.842Z,1204.00
2023-04-18T09:12:41.880Z,1223.00
2023-04-18T09:13:41.954Z,1236.00
2023-04-18T09:14:41.901Z,1248.00
2023-04-18T09:15:41.880Z,1271.00
2023-04-18T09:16:41.974Z,1299.00
2023-04-18T09:17:41.922Z,1311.00
2023-04-18T09:18:43.485Z,1322.00
2023-04-18T09:19:41.883Z,1338.00
2023-04-18T09:20:41.888Z,1351.00
2023-04-18T09:21:41.878Z,1368.00
2023-04-18T09:22:41.900Z,1382.00
2023-04-18T09:23:41.950Z,1392.00
2023-04-18T09:24:41.963Z,1400.00
2023-04-18T09:25:43.578Z,1390.00
2023-04-18T09:26:42.450Z,1394.00
2023-04-18T09:27:42.333Z,1422.00
2023-04-18T09:28:42.390Z,1433.00
2023-04-18T09:29:42.444Z,1438.00
2023-04-18T09:30:42.550Z,1449.00
2023-04-18T09:31:42.946Z,1457.00
2023-04-18T09:32:42.649Z,1470.00
2023-04-18T09:33:42.673Z,1481.00
2023-04-18T09:34:42.751Z,1490.00
2023-04-18T09:35:42.811Z,1501.00
2023-04-18T09:36:43.004Z,1506.00
2023-04-18T09:37:42.893Z,1519.00
2023-04-18T09:38:42.972Z,1528.00
2023-04-18T09:39:43.078Z,1535.00
2023-04-18T09:40:43.049Z,1543.00
2023-04-18T09:41:43.615Z,1542.00
2023-04-18T09:42:43.173Z,1542.00
2023-04-18T09:43:43.219Z,1548.00
2023-04-18T09:44:43.284Z,1551.00
2023-04-18T09:45:43.364Z,1554.00
2023-04-18T09:46:46.659Z,1547.00
2023-04-18T09:47:43.381Z,1492.00
2023-04-18T09:48:43.365Z,1448.00
2023-04-18T09:49:43.358Z,1489.00
2023-04-18T09:50:43.358Z,1521.00
2023-04-18T09:51:43.465Z,1535.00
2023-04-18T09:52:43.350Z,1541.00
2023-04-18T09:53:43.356Z,1549.00
2023-04-18T09:54:43.350Z,1558.00
2023-04-18T09:55:43.960Z,1563.00
2023-04-18T09:56:43.317Z,1571.00
2023-04-18T09:57:43.285Z,1581.00
2023-04-18T09:58:43.280Z,1589.00
2023-04-18T09:59:43.287Z,1597.00
2023-04-18T10:00:44.972Z,1603.00
2023-04-18T10:01:43.287Z,1611.00
2023-04-18T10:02:43.327Z,1617.00
2023-04-18T10:03:43.372Z,1619.00
2023-04-18T10:04:43.286Z,1623.00
2023-04-18T10:05:43.352Z,1627.00
2023-04-18T10:06:43.250Z,1637.00
2023-04-18T10:07:43.251Z,1639.00
2023-04-18T10:08:43.193Z,1643.00
2023-04-18T10:09:43.219Z,1651.00
2023-04-18T10:10:43.250Z,1654.00
2023-04-18T10:11:43.208Z,1661.00
2023-04-18T10:12:43.184Z,1662.00
2023-04-18T10:13:43.233Z,1666.00
2023-04-18T10:14:43.200Z,1665.00
2023-04-18T10:15:44.295Z,1662.00
2023-04-18T10:16:43.295Z,1665.00
2023-04-18T10:17:56.102Z,1668.00
2023-04-18T10:18:44.187Z,1665.00
2023-04-18T10:19:44.244Z,1664.00
2023-04-18T10:20:43.140Z,1667.00
2023-04-18T10:21:43.141Z,1670.00
2023-04-18T10:22:43.124Z,1672.00
2023-04-18T10:23:43.131Z,1669.00
2023-04-18T10:24:43.119Z,1673.00
2023-04-18T10:25:43.091Z,1679.00
2023-04-18T10:26:43.098Z,1681.00
2023-04-18T10:27:43.077Z,1681.00
2023-04-18T10:28:43.065Z,1675.00
2023-04-18T10:29:43.119Z,1669.00
2023-04-18T10:30:43.150Z,1670.00
2023-04-18T10:31:43.248Z,1667.00
2023-04-18T10:32:43.278Z,1670.00
2023-04-18T10:33:43.387Z,1668.00
2023-04-18T10:34:43.330Z,1666.00
2023-04-18T10:35:43.524Z,1651.00
2023-04-18T10:36:43.482Z,1644.00
2023-04-18T10:37:43.611Z,1654.00
2023-04-18T10:38:43.493Z,1679.00
2023-04-18T10:39:43.550Z,1689.00
2023-04-18T10:40:43.642Z,1692.00
2023-04-18T10:41:43.672Z,1696.00
2023-04-18T10:42:43.675Z,1705.00
2023-04-18T10:43:43.746Z,1780.00
2023-04-18T10:44:43.784Z,1798.00
2023-04-18T10:45:43.806Z,1811.00
2023-04-18T10:46:43.918Z,1820.00
2023-04-18T10:47:44.026Z,1835.00
2023-04-18T10:48:43.968Z,1848.00
2023-04-18T10:49:43.993Z,1854.00
2023-04-18T10:50:44.051Z,1861.00
2023-04-18T10:51:44.495Z,1866.00
2023-04-18T10:52:44.105Z,1867.00
2023-04-18T10:53:44.143Z,1873.00
2023-04-18T10:54:44.191Z,1878.00
2023-04-18T10:55:44.270Z,1778.00
2023-04-18T10:56:44.302Z,1813.00
2023-04-18T10:57:44.470Z,1827.00
2023-04-18T10:58:44.357Z,1835.00
2023-04-18T10:59:44.443Z,1837.00
2023-04-18T11:00:44.445Z,1831.00
2023-04-18T11:01:44.488Z,1866.00
2023-04-18T11:02:44.602Z,1916.00
2023-04-18T11:03:44.615Z,1921.00
2023-04-18T11:04:44.551Z,1931.00
2023-04-18T11:05:44.608Z,1976.00
2023-04-18T11:06:44.607Z,2004.00
2023-04-18T11:07:44.616Z,2023.00
2023-04-18T11:08:44.612Z,2031.00
2023-04-18T11:09:45.566Z,2043.00
2023-04-18T11:10:44.622Z,2054.00
2023-04-18T11:11:44.694Z,2064.00
2023-04-18T11:12:45.460Z,2169.00
2023-04-18T11:13:44.788Z,2186.00
2023-04-18T11:14:44.726Z,2187.00
2023-04-18T11:15:44.691Z,2189.00
2023-04-18T11:16:44.735Z,2201.00
2023-04-18T11:17:44.724Z,2219.00
2023-04-18T11:18:44.666Z,2244.00
2023-04-18T11:19:44.705Z,2282.00
2023-04-18T11:20:44.680Z,2300.00
2023-04-18T11:21:44.994Z,2319.00
2023-04-18T11:22:44.659Z,2340.00
2023-04-18T11:23:44.665Z,2364.00
2023-04-18T11:24:44.678Z,2372.00
2023-04-18T11:25:44.699Z,2380.00
2023-04-18T11:26:44.751Z,2393.00
2023-04-18T11:27:44.752Z,2401.00
2023-04-18T11:28:44.814Z,2412.00
2023-04-18T11:29:44.776Z,2436.00
2023-04-18T11:30:44.818Z,2458.00
2023-04-18T11:31:45.084Z,2470.00
2023-04-18T11:32:44.924Z,2482.00
2023-04-18T11:33:44.918Z,2471.00
2023-04-18T11:34:44.898Z,2454.00
2023-04-18T11:35:44.928Z,2450.00
2023-04-18T11:36:44.954Z,2434.00
2023-04-18T11:37:45.541Z,2417.00
2023-04-18T11:38:45.078Z,2402.00
2023-04-18T11:39:45.053Z,2388.00
2023-04-18T11:40:45.105Z,2355.00
2023-04-18T11:41:45.175Z,2338.00
2023-04-18T11:42:45.243Z,2322.00
2023-04-18T11:43:45.266Z,2294.00
2023-04-18T11:44:45.283Z,2251.00
2023-04-18T11:45:45.476Z,2230.00
2023-04-18T11:46:45.389Z,2215.00
2023-04-18T11:47:45.531Z,2194.00
2023-04-18T11:48:45.499Z,2180.00
2023-04-18T11:49:45.525Z,2167.00
2023-04-18T11:50:45.576Z,2156.00
2023-04-18T11:51:45.641Z,2151.00
2023-04-18T11:52:45.668Z,2135.00
2023-04-18T11:53:45.722Z,2111.00
2023-04-18T11:54:45.732Z,2096.00
2023-04-18T11:55:45.800Z,2086.00
2023-04-18T11:56:45.848Z,2069.00
2023-04-18T11:57:45.875Z,2056.00
2023-04-18T11:58:45.865Z,2044.00
2023-04-18T11:59:45.893Z,2031.00
2023-04-18T12:00:45.908Z,2015.00
2023-04-18T12:01:46.113Z,2000.00
2023-04-18T12:02:46.109Z,1953.00
2023-04-18T12:03:46.209Z,1957.00
2023-04-18T12:04:46.303Z,1948.00
2023-04-18T12:05:46.231Z,1939.00
2023-04-18T12:06:46.116Z,1940.00
2023-04-18T12:07:46.111Z,1939.00
2023-04-18T12:08:46.162Z,1942.00
2023-04-18T12:09:46.172Z,1932.00
2023-04-18T12:10:46.189Z,1917.00
2023-04-18T12:11:46.251Z,1909.00
2023-04-18T12:12:46.269Z,1909.00
2023-04-18T12:13:46.287Z,1908.00
2023-04-18T12:14:46.270Z,1905.00
2023-04-18T12:15:46.337Z,1884.00
2023-04-18T12:16:46.343Z,1877.00
2023-04-18T12:17:46.507Z,1875.00